createdAt,value
2023-11-01T00:01:12.298Z,10.50
2023-11-01T00:03:39.513Z,10.50
2023-11-01T00:06:07.470Z,10.60
2023-11-01T00:08:34.409Z,10.50
2023-11-01T00:11:01.396Z,10.50
2023-11-01T00:13:28.253Z,10.60
2023-11-01T00:15:55.428Z,10.60
2023-11-01T00:18:22.463Z,10.50
2023-11-01T00:20:49.396Z,10.50
2023-11-01T00:23:16.500Z,10.50
2023-11-01T00:25:43.563Z,10.60
2023-11-01T00:28:10.497Z,10.60
2023-11-01T00:30:37.706Z,10.60
2023-11-01T00:33:04.936Z,10.60
2023-11-01T00:35:31.884Z,10.60
2023-11-01T00:37:58.724Z,10.60
2023-11-01T00:40:25.611Z,10.60
2023-11-01T00:42:52.547Z,10.70
2023-11-01T00:45:19.371Z,10.70
2023-11-01T00:47:46.286Z,10.70
2023-11-01T00:50:13.583Z,10.60
2023-11-01T00:52:40.844Z,10.60
2023-11-01T00:55:08.988Z,10.60
2023-11-01T00:57:36.223Z,10.70
2023-11-01T01:00:03.799Z,10.70
2023-11-01T01:02:31.022Z,10.70
2023-11-01T01:04:57.842Z,10.70
2023-11-01T01:07:24.762Z,10.70
2023-11-01T01:09:51.974Z,10.70
2023-11-01T01:12:18.810Z,10.70
2023-11-01T01:14:45.810Z,10.70
2023-11-01T01:17:12.682Z,10.70
2023-11-01T01:19:39.979Z,10.70
2023-11-01T01:22:06.972Z,10.70
2023-11-01T01:24:33.760Z,10.70
2023-11-01T01:27:00.711Z,10.70
2023-11-01T01:29:27.682Z,10.70
2023-11-01T01:31:54.455Z,10.70
2023-11-01T01:34:21.425Z,10.70
2023-11-01T01:36:48.355Z,10.70
2023-11-01T01:39:15.100Z,10.70
2023-11-01T01:41:42.488Z,10.70
2023-11-01T01:44:09.558Z,10.80
2023-11-01T01:46:36.801Z,10.70
2023-11-01T01:49:04.059Z,10.70
2023-11-01T01:51:31.357Z,10.70
2023-11-01T01:53:58.603Z,10.70
2023-11-01T01:56:26.131Z,10.70
2023-11-01T01:58:54.782Z,10.70
2023-11-01T02:01:32.198Z,10.70
2023-11-01T02:04:05.875Z,10.70
2023-11-01T02:06:33.018Z,10.70
2023-11-01T02:08:59.955Z,10.70
2023-11-01T02:11:26.777Z,10.80
2023-11-01T02:13:53.675Z,10.70
2023-11-01T02:16:20.508Z,10.70
2023-11-01T02:18:47.452Z,10.70
2023-11-01T02:21:14.581Z,10.80
2023-11-01T02:23:44.121Z,10.80
2023-11-01T02:26:10.964Z,10.80
2023-11-01T02:28:37.902Z,10.80
2023-11-01T02:31:05.244Z,10.80
2023-11-01T02:33:32.094Z,10.70
2023-11-01T02:36:01.565Z,10.80
2023-11-01T02:38:28.407Z,10.70
2023-11-01T02:40:55.282Z,10.80
2023-11-01T02:43:22.093Z,10.70
2023-11-01T02:45:49.005Z,10.70
2023-11-01T02:48:15.906Z,10.80
2023-11-01T02:50:42.887Z,10.80
2023-11-01T02:53:12.580Z,10.80
2023-11-01T02:55:39.925Z,10.80
2023-11-01T02:58:07.120Z,10.90
2023-11-01T03:00:34.905Z,10.90
2023-11-01T03:03:04.518Z,10.90
2023-11-01T03:05:32.027Z,10.90
2023-11-01T03:07:58.876Z,10.90
2023-11-01T03:10:25.816Z,10.90
2023-11-01T03:12:52.740Z,10.90
2023-11-01T03:15:19.750Z,10.90
2023-11-01T03:17:48.767Z,10.90
2023-11-01T03:20:15.770Z,10.90
2023-11-01T03:22:42.747Z,10.90
2023-11-01T03:25:10.168Z,10.90
2023-11-01T03:27:37.315Z,10.90
2023-11-01T03:30:04.562Z,10.90
2023-11-01T03:32:31.511Z,10.80
2023-11-01T03:34:59.078Z,10.80
2023-11-01T03:37:25.988Z,10.70
2023-11-01T03:39:53.394Z,10.70
2023-11-01T03:42:22.297Z,10.70
2023-11-01T03:44:51.129Z,10.70
2023-11-01T03:47:18.436Z,10.70
2023-11-01T03:49:45.982Z,10.60
2023-11-01T03:52:13.423Z,10.60
2023-11-01T03:54:40.543Z,10.60
2023-11-01T03:57:08.011Z,10.60
2023-11-01T03:59:35.086Z,10.60
2023-11-01T04:02:02.122Z,10.50
2023-11-01T04:04:29.175Z,10.40
2023-11-01T04:06:56.366Z,10.40
2023-11-01T04:09:23.499Z,10.30
2023-11-01T04:11:50.478Z,10.40
2023-11-01T04:14:17.267Z,10.30
2023-11-01T04:16:44.729Z,10.20
2023-11-01T04:19:13.072Z,10.20
2023-11-01T04:21:40.316Z,10.20
2023-11-01T04:24:11.465Z,10.20
2023-11-01T04:26:38.904Z,10.20
2023-11-01T04:29:06.162Z,10.20
2023-11-01T04:31:33.613Z,10.20
2023-11-01T04:34:00.497Z,10.20
2023-11-01T04:36:27.465Z,10.20
2023-11-01T04:38:54.966Z,10.30
2023-11-01T04:41:22.936Z,10.30
2023-11-01T04:43:50.126Z,10.30
2023-11-01T04:46:17.038Z,10.30
2023-11-01T04:48:44.293Z,10.30
2023-11-01T04:51:11.604Z,10.30
2023-11-01T04:53:38.891Z,10.30
2023-11-01T04:56:07.644Z,10.40
2023-11-01T04:58:36.613Z,10.30
2023-11-01T05:01:06.660Z,10.40
2023-11-01T05:03:36.748Z,10.40
2023-11-01T05:06:04.971Z,10.40
2023-11-01T05:08:31.844Z,10.40
2023-11-01T05:10:59.026Z,10.30
2023-11-01T05:13:25.971Z,10.40
2023-11-01T05:15:57.086Z,10.40
2023-11-01T05:18:25.921Z,10.30
2023-11-01T05:20:53.263Z,10.30
2023-11-01T05:23:20.757Z,10.30
2023-11-01T05:25:50.406Z,10.30
2023-11-01T05:28:17.650Z,10.30
2023-11-01T05:30:47.023Z,10.30
2023-11-01T05:33:15.713Z,10.20
2023-11-01T05:35:43.683Z,10.20
2023-11-01T05:38:11.492Z,10.20
2023-11-01T05:40:38.538Z,10.20
2023-11-01T05:43:06.642Z,10.20
2023-11-01T05:45:33.814Z,10.10
2023-11-01T05:48:10.240Z,10.20
2023-11-01T05:50:37.988Z,10.20
2023-11-01T05:53:11.002Z,10.10
2023-11-01T05:55:54.719Z,10.20
2023-11-01T05:58:29.766Z,10.20
2023-11-01T06:00:56.901Z,10.20
2023-11-01T06:03:27.705Z,10.20
2023-11-01T06:05:59.064Z,10.20
2023-11-01T06:08:26.536Z,10.20
2023-11-01T06:10:55.237Z,10.20
2023-11-01T06:13:22.623Z,10.20
2023-11-01T06:15:51.373Z,10.20
2023-11-01T06:18:19.314Z,10.20
2023-11-01T06:20:46.344Z,10.20
2023-11-01T06:23:13.351Z,10.20
2023-11-01T06:25:40.309Z,10.10
2023-11-01T06:28:08.065Z,10.10
2023-11-01T06:30:35.062Z,10.10
2023-11-01T06:33:03.340Z,10.00
2023-11-01T06:35:30.553Z,10.10
2023-11-01T06:37:57.554Z,10.10
2023-11-01T06:40:24.568Z,10.10
2023-11-01T06:42:51.780Z,10.20
2023-11-01T06:45:19.951Z,10.20
2023-11-01T06:47:46.962Z,10.10
2023-11-01T06:50:14.294Z,10.20
2023-11-01T06:52:45.930Z,10.30
2023-11-01T06:55:13.699Z,10.30
2023-11-01T06:57:40.870Z,10.30
2023-11-01T07:00:10.242Z,10.30
2023-11-01T07:02:37.210Z,10.30
2023-11-01T07:05:08.581Z,10.40
2023-11-01T07:07:35.831Z,10.30
2023-11-01T07:10:02.800Z,10.40
2023-11-01T07:12:29.807Z,10.40
2023-11-01T07:14:56.659Z,10.50
2023-11-01T07:17:27.858Z,10.50
2023-11-01T07:19:58.003Z,10.50
2023-11-01T07:22:24.975Z,10.60
2023-11-01T07:24:52.052Z,10.60
2023-11-01T07:27:19.085Z,10.60
2023-11-01T07:29:46.141Z,10.60
2023-11-01T07:32:13.439Z,10.60
2023-11-01T07:34:41.413Z,10.60
2023-11-01T07:37:08.673Z,10.50
2023-11-01T07:39:36.060Z,10.50
2023-11-01T07:42:03.005Z,10.60
2023-11-01T07:44:30.061Z,10.60
2023-11-01T07:46:57.295Z,10.60
2023-11-01T07:49:24.141Z,10.70
2023-11-01T07:51:51.109Z,10.70
2023-11-01T07:54:18.001Z,10.70
2023-11-01T07:56:45.144Z,10.70
2023-11-01T07:59:12.569Z,10.80
2023-11-01T08:01:39.561Z,10.90
2023-11-01T08:04:07.024Z,10.90
2023-11-01T08:06:34.126Z,11.00
2023-11-01T08:09:01.062Z,11.00
2023-11-01T08:11:28.290Z,11.10
2023-11-01T08:13:55.229Z,11.10
2023-11-01T08:16:22.287Z,11.20
2023-11-01T08:18:49.655Z,11.30
2023-11-01T08:21:16.752Z,11.40
2023-11-01T08:23:43.872Z,11.50
2023-11-01T08:26:16.184Z,11.60
2023-11-01T08:28:43.109Z,11.70
2023-11-01T08:31:09.943Z,11.70
2023-11-01T08:33:37.275Z,11.80
2023-11-01T08:36:04.714Z,11.80
2023-11-01T08:38:32.891Z,11.90
2023-11-01T08:41:00.330Z,11.90
2023-11-01T08:43:27.279Z,11.90
2023-11-01T08:45:54.618Z,12.00
2023-11-01T08:48:21.583Z,12.10
2023-11-01T08:50:49.003Z,12.10
2023-11-01T08:53:16.459Z,12.20
2023-11-01T08:55:43.699Z,12.20
2023-11-01T08:58:10.762Z,12.20
2023-11-01T09:00:45.255Z,12.10
2023-11-01T09:03:15.424Z,12.10
2023-11-01T09:05:42.949Z,12.10
2023-11-01T09:08:09.789Z,12.10
2023-11-01T09:10:37.073Z,12.10
2023-11-01T09:13:03.989Z,12.20
2023-11-01T09:15:30.932Z,12.20
2023-11-01T09:17:58.289Z,12.20
2023-11-01T09:20:25.305Z,12.20
2023-11-01T09:22:52.379Z,12.20
2023-11-01T09:25:19.632Z,12.30
2023-11-01T09:27:46.877Z,12.30
2023-11-01T09:30:13.845Z,12.40
2023-11-01T09:32:41.383Z,12.40
2023-11-01T09:35:09.520Z,12.50
2023-11-01T09:37:37.322Z,12.60
2023-11-01T09:40:05.056Z,12.70
2023-11-01T09:45:19.380Z,12.90
2023-11-01T09:47:46.394Z,12.90
2023-11-01T09:50:14.976Z,12.90
2023-11-01T09:52:41.961Z,13.00
2023-11-01T09:55:09.789Z,13.00
2023-11-01T09:57:36.787Z,13.10
2023-11-01T10:00:05.205Z,13.10
2023-11-01T10:02:33.237Z,13.20
2023-11-01T10:05:00.116Z,13.10
2023-11-01T10:07:30.571Z,13.20
2023-11-01T10:09:57.545Z,13.20
2023-11-01T10:12:26.669Z,13.20
2023-11-01T10:14:53.650Z,13.30
2023-11-01T10:17:20.734Z,13.30
2023-11-01T10:19:48.703Z,13.30
2023-11-01T10:22:15.928Z,13.20
2023-11-01T10:24:44.140Z,13.20
2023-11-01T10:27:12.054Z,13.20
2023-11-01T10:29:44.594Z,13.10
2023-11-01T10:32:14.284Z,13.10
2023-11-01T10:34:41.538Z,13.10
2023-11-01T10:37:09.844Z,13.10
2023-11-01T10:39:41.454Z,13.20
2023-11-01T10:42:09.838Z,13.30
2023-11-01T10:44:37.367Z,13.20
2023-11-01T10:47:04.641Z,13.40
2023-11-01T10:49:32.211Z,13.50
2023-11-01T10:52:02.796Z,13.50
2023-11-01T10:54:30.018Z,13.60
2023-11-01T10:56:57.118Z,13.70
2023-11-01T10:59:47.472Z,13.70
2023-11-01T11:02:19.659Z,13.70
2023-11-01T11:05:28.416Z,13.70
2023-11-01T11:07:58.134Z,13.80
2023-11-01T11:10:33.552Z,13.80
2023-11-01T11:16:08.305Z,13.70
2023-11-01T11:18:45.135Z,13.70
2023-11-01T11:21:51.103Z,13.80
2023-11-01T11:24:41.131Z,13.90
2023-11-01T11:27:49.091Z,13.80
2023-11-01T11:30:16.210Z,13.80
2023-11-01T11:32:43.566Z,13.90
2023-11-01T11:35:20.815Z,13.90
2023-11-01T11:37:47.683Z,14.00
2023-11-01T11:40:15.040Z,14.10
2023-11-01T11:42:41.825Z,14.20
2023-11-01T11:45:13.644Z,14.30
2023-11-01T11:47:40.957Z,14.20
2023-11-01T11:50:09.082Z,14.20
2023-11-01T11:52:36.800Z,14.10
2023-11-01T11:55:05.255Z,14.00
2023-11-01T11:57:32.518Z,14.20
2023-11-01T12:02:56.410Z,14.40
2023-11-01T12:05:23.344Z,14.60
2023-11-01T12:07:50.121Z,14.40
2023-11-01T12:10:17.005Z,14.40
2023-11-01T12:12:55.352Z,14.60
2023-11-01T12:15:22.706Z,14.70
2023-11-01T12:17:49.872Z,14.70
2023-11-01T12:20:31.865Z,14.80
2023-11-01T12:22:59.185Z,14.80
2023-11-01T12:25:26.137Z,14.70
2023-11-01T12:27:53.646Z,14.70
2023-11-01T12:30:21.201Z,14.60
2023-11-01T12:32:48.384Z,14.60
2023-11-01T12:35:15.273Z,14.60
2023-11-01T12:37:43.775Z,14.70
2023-11-01T12:40:14.080Z,14.60
2023-11-01T12:42:51.036Z,14.60
2023-11-01T12:45:20.098Z,14.50
2023-11-01T12:47:51.582Z,14.50
2023-11-01T12:50:30.360Z,14.70
2023-11-01T12:52:57.599Z,14.80
2023-11-01T12:55:25.687Z,14.90
2023-11-01T12:58:01.242Z,14.90
2023-11-01T13:00:32.361Z,15.10
2023-11-01T13:03:00.904Z,15.00
2023-11-01T13:05:27.900Z,15.10
2023-11-01T13:07:58.118Z,14.90
2023-11-01T13:10:26.186Z,14.80
2023-11-01T13:12:53.427Z,14.70
2023-11-01T13:15:20.917Z,14.80
2023-11-01T13:17:48.931Z,14.70
2023-11-01T13:20:17.028Z,14.70
2023-11-01T13:22:44.088Z,14.70
2023-11-01T13:25:12.375Z,14.60
2023-11-01T13:27:39.616Z,14.60
2023-11-01T13:30:07.307Z,14.60
2023-11-01T13:32:34.411Z,14.50
2023-11-01T13:35:03.144Z,14.60
2023-11-01T13:37:33.195Z,14.60
2023-11-01T13:40:00.430Z,14.60
2023-11-01T13:42:27.807Z,14.60
2023-11-01T13:44:54.796Z,14.60
2023-11-01T13:47:25.311Z,14.50
2023-11-01T13:49:52.944Z,14.40
2023-11-01T13:52:19.773Z,14.40
2023-11-01T13:54:46.929Z,14.30
2023-11-01T13:57:13.891Z,14.30
2023-11-01T13:59:40.752Z,14.30
2023-11-01T14:02:09.110Z,14.30
2023-11-01T14:04:36.136Z,14.20
2023-11-01T14:07:03.173Z,14.10
2023-11-01T14:09:30.153Z,14.10
2023-11-01T14:11:57.502Z,14.10
2023-11-01T14:14:24.917Z,14.10
2023-11-01T14:16:52.443Z,14.10
2023-11-01T14:19:19.736Z,14.10
2023-11-01T14:21:46.713Z,14.00
2023-11-01T14:24:16.341Z,14.00
2023-11-01T14:26:46.378Z,13.80
2023-11-01T14:29:13.274Z,13.90
2023-11-01T14:31:40.150Z,13.90
2023-11-01T14:34:07.215Z,13.90
2023-11-01T14:36:34.852Z,13.90
2023-11-01T14:39:01.772Z,13.80
2023-11-01T14:41:28.758Z,13.90
2023-11-01T14:43:57.946Z,13.90
2023-11-01T14:46:26.407Z,13.80
2023-11-01T14:48:54.636Z,13.80
2023-11-01T14:51:21.998Z,13.80
2023-11-01T14:53:49.943Z,13.70
2023-11-01T14:56:18.496Z,13.60
2023-11-01T14:58:48.748Z,13.70
2023-11-01T15:01:16.411Z,13.50
2023-11-01T15:03:45.729Z,13.50
2023-11-01T15:06:13.457Z,13.50
2023-11-01T15:08:41.320Z,13.40
2023-11-01T15:11:08.643Z,13.30
2023-11-01T15:13:35.667Z,13.30
2023-11-01T15:16:02.995Z,13.30
2023-11-01T15:18:30.373Z,13.30
2023-11-01T15:20:57.389Z,13.20
2023-11-01T15:23:25.117Z,13.20
2023-11-01T15:25:52.204Z,13.20
2023-11-01T15:28:19.032Z,13.10
2023-11-01T15:30:45.876Z,13.20
2023-11-01T15:33:13.086Z,13.10
2023-11-01T15:35:40.555Z,13.10
2023-11-01T15:38:07.544Z,13.10
2023-11-01T15:40:34.908Z,13.00
2023-11-01T15:43:03.303Z,13.00
2023-11-01T15:45:30.305Z,13.00
2023-11-01T15:47:57.482Z,13.00
2023-11-01T15:50:24.826Z,13.00
2023-11-01T15:52:51.796Z,12.90
2023-11-01T15:55:18.635Z,12.80
2023-11-01T15:57:45.618Z,12.80
2023-11-01T16:00:13.747Z,12.80
2023-11-01T16:02:40.874Z,12.80
2023-11-01T16:05:08.687Z,12.80
2023-11-01T16:07:36.815Z,12.80
2023-11-01T16:10:04.113Z,12.80
2023-11-01T16:12:30.955Z,12.80
2023-11-01T16:14:58.419Z,12.80
2023-11-01T16:17:25.834Z,12.90
2023-11-01T16:19:52.687Z,12.80
2023-11-01T16:22:22.145Z,12.70
2023-11-01T16:24:50.740Z,12.70
2023-11-01T16:27:22.913Z,12.70
2023-11-01T16:29:50.141Z,12.70
2023-11-01T16:32:17.671Z,12.70
2023-11-01T16:34:46.475Z,12.70
2023-11-01T16:37:13.865Z,12.60
2023-11-01T16:39:41.323Z,12.60
2023-11-01T16:42:09.328Z,12.50
2023-11-01T16:44:36.583Z,12.40
2023-11-01T16:47:03.888Z,12.40
2023-11-01T16:49:30.774Z,12.40
2023-11-01T16:51:57.599Z,12.30
2023-11-01T16:54:25.680Z,12.20
2023-11-01T16:56:53.970Z,12.00
2023-11-01T16:59:21.285Z,11.90
2023-11-01T17:01:52.012Z,11.80
2023-11-01T17:04:19.096Z,11.70
2023-11-01T17:06:45.945Z,11.50
2023-11-01T17:09:12.928Z,11.40
2023-11-01T17:11:42.810Z,11.30
2023-11-01T17:14:09.731Z,11.30
2023-11-01T17:16:36.981Z,11.20
2023-11-01T17:19:03.833Z,11.20
2023-11-01T17:21:32.328Z,11.10
2023-11-01T17:23:59.580Z,11.10
2023-11-01T17:26:28.583Z,11.00
2023-11-01T17:29:00.816Z,10.90
2023-11-01T17:31:40.588Z,10.90
2023-11-01T17:34:09.419Z,10.80
2023-11-01T17:36:37.795Z,10.80
2023-11-01T17:39:09.893Z,10.70
2023-11-01T17:41:49.809Z,10.70
2023-11-01T17:44:35.524Z,10.70
2023-11-01T17:47:12.789Z,10.60
2023-11-01T17:49:48.895Z,10.60
2023-11-01T17:52:29.300Z,10.60
2023-11-01T17:55:04.802Z,10.60
2023-11-01T17:57:33.652Z,10.50
2023-11-01T18:00:02.304Z,10.50
2023-11-01T18:02:32.759Z,10.40
2023-11-01T18:05:01.529Z,10.40
2023-11-01T18:07:31.078Z,10.30
2023-11-01T18:09:58.587Z,10.30
2023-11-01T18:12:25.713Z,10.30
2023-11-01T18:14:55.336Z,10.30
2023-11-01T18:17:28.044Z,10.30
2023-11-01T18:19:56.073Z,10.30
2023-11-01T18:22:46.007Z,10.30
2023-11-01T18:25:47.780Z,10.30
2023-11-01T18:28:18.747Z,10.30
2023-11-01T18:30:45.961Z,10.30
2023-11-01T18:33:12.874Z,10.30
2023-11-01T18:35:40.349Z,10.30
2023-11-01T18:38:16.479Z,10.30
2023-11-01T18:40:43.838Z,10.30
2023-11-01T18:43:10.775Z,10.30
2023-11-01T18:45:40.943Z,10.30
2023-11-01T18:48:08.633Z,10.40
2023-11-01T18:50:35.461Z,10.30
2023-11-01T18:53:07.559Z,10.40
2023-11-01T18:55:35.630Z,10.50
2023-11-01T18:58:03.669Z,10.40
2023-11-01T19:00:30.747Z,10.40
2023-11-01T19:03:04.710Z,10.50
2023-11-01T19:05:33.545Z,10.50
2023-11-01T19:08:01.560Z,10.50
2023-11-01T19:10:38.807Z,10.50
2023-11-01T19:13:05.788Z,10.50
2023-11-01T19:15:36.211Z,10.40
2023-11-01T19:18:07.771Z,10.40
2023-11-01T19:20:34.928Z,10.30
2023-11-01T19:23:01.963Z,10.30
2023-11-01T19:25:29.360Z,10.20
2023-11-01T19:27:56.644Z,10.30
2023-11-01T19:30:23.544Z,10.20
2023-11-01T19:32:50.504Z,10.20
2023-11-01T19:35:19.101Z,10.20
2023-11-01T19:37:45.973Z,10.20
2023-11-01T19:40:12.931Z,10.30
2023-11-01T19:42:40.112Z,10.30
2023-11-01T19:45:09.428Z,10.30
2023-11-01T19:47:39.568Z,10.40
2023-11-01T19:50:10.073Z,10.40
2023-11-01T19:52:38.261Z,10.40
2023-11-01T19:55:05.591Z,10.40
2023-11-01T19:57:33.706Z,10.50
2023-11-01T20:00:00.836Z,10.40
2023-11-01T20:02:28.064Z,10.40
2023-11-01T20:04:55.123Z,10.30
2023-11-01T20:07:22.672Z,10.30
2023-11-01T20:09:49.916Z,10.40
2023-11-01T20:12:17.616Z,10.30
2023-11-01T20:14:45.927Z,10.30
2023-11-01T20:17:12.924Z,10.30
2023-11-01T20:19:39.730Z,10.30
2023-11-01T20:22:06.582Z,10.30
2023-11-01T20:24:33.777Z,10.30
2023-11-01T20:27:00.871Z,10.30
2023-11-01T20:29:28.154Z,10.20
2023-11-01T20:31:56.115Z,10.20
2023-11-01T20:34:22.968Z,10.10
2023-11-01T20:36:50.399Z,10.10
2023-11-01T20:39:17.209Z,10.00
2023-11-01T20:41:45.352Z,10.00
2023-11-01T20:44:13.324Z,9.90
2023-11-01T20:46:40.454Z,9.90
2023-11-01T20:49:07.477Z,9.90
2023-11-01T20:51:34.356Z,9.90
2023-11-01T20:54:03.789Z,9.90
2023-11-01T20:56:35.552Z,9.90
2023-11-01T20:59:04.508Z,9.90
2023-11-01T21:01:31.528Z,10.00
2023-11-01T21:04:01.148Z,10.00
2023-11-01T21:06:28.516Z,10.00
2023-11-01T21:08:56.594Z,10.00
2023-11-01T21:11:23.957Z,10.10
2023-11-01T21:13:54.244Z,10.00
2023-11-01T21:16:21.463Z,10.10
2023-11-01T21:18:48.526Z,10.10
2023-11-01T21:21:15.427Z,10.10
2023-11-01T21:23:42.816Z,10.10
2023-11-01T21:26:10.456Z,10.10
2023-11-01T21:28:40.602Z,10.20
2023-11-01T21:31:10.959Z,10.20
2023-11-01T21:33:40.367Z,10.20
2023-11-01T21:36:07.583Z,10.20
2023-11-01T21:38:34.680Z,10.30
2023-11-01T21:41:01.694Z,10.30
2023-11-01T21:43:56.252Z,10.30
2023-11-01T21:46:29.206Z,10.20
2023-11-01T21:48:57.232Z,10.20
2023-11-01T21:51:27.251Z,10.20
2023-11-01T21:53:55.946Z,10.30
2023-11-01T21:56:24.839Z,10.30
2023-11-01T21:59:08.191Z,10.30
2023-11-01T22:01:35.816Z,10.30
2023-11-01T22:04:21.282Z,10.30
2023-11-01T22:06:49.800Z,10.40
2023-11-01T22:09:18.393Z,10.30
2023-11-01T22:11:50.458Z,10.40
2023-11-01T22:14:26.763Z,10.40
2023-11-01T22:16:53.602Z,10.40
2023-11-01T22:19:20.465Z,10.40
2023-11-01T22:21:47.453Z,10.40
2023-11-01T22:24:15.702Z,10.40
2023-11-01T22:26:44.881Z,10.30
2023-11-01T22:29:19.658Z,10.30
2023-11-01T22:31:54.161Z,10.30
2023-11-01T22:34:24.573Z,10.20
2023-11-01T22:36:53.225Z,10.20
2023-11-01T22:39:32.125Z,10.20
2023-11-01T22:41:59.831Z,10.10
2023-11-01T22:44:27.127Z,10.10
2023-11-01T22:46:53.984Z,10.10
2023-11-01T22:49:21.360Z,10.10
2023-11-01T22:51:48.547Z,10.00
2023-11-01T22:54:15.643Z,10.10
2023-11-01T22:56:42.485Z,10.00
2023-11-01T22:59:09.483Z,10.10
2023-11-01T23:01:36.535Z,10.00
2023-11-01T23:04:03.488Z,10.00
2023-11-01T23:06:30.378Z,10.00
2023-11-01T23:08:57.445Z,10.00
2023-11-01T23:11:24.745Z,9.90
2023-11-01T23:13:51.776Z,9.90
2023-11-01T23:16:18.698Z,9.90
2023-11-01T23:18:46.482Z,9.90
2023-11-01T23:21:13.417Z,9.90
2023-11-01T23:23:40.683Z,9.90
2023-11-01T23:26:14.645Z,9.90
2023-11-01T23:29:06.431Z,9.90
2023-11-01T23:31:38.504Z,9.90
2023-11-01T23:34:09.454Z,10.00
2023-11-01T23:36:36.344Z,10.00
2023-11-01T23:39:09.798Z,9.90
2023-11-01T23:41:46.721Z,10.00
2023-11-01T23:44:13.702Z,10.00
2023-11-01T23:46:40.897Z,10.00
2023-11-01T23:49:09.469Z,10.00
2023-11-01T23:51:39.421Z,10.10
2023-11-01T23:54:07.634Z,10.10
2023-11-01T23:56:37.918Z,10.10
2023-11-01T23:59:07.752Z,10.10
